Nearby METAR Reports

 

EGVN - Brize Norton Raf, United Kingdom
Distance from station: SSE 20mi, 32km
Updated: 22/07/2018 21:50
Clear
Clear
 Wind from W
Wind: W 7 mph , 11 km/h
Temperature: 25°C
Dew Point: 15°C
Humidity: 54%
Barometer: 1016 hPa
Summary: Clear
Visibility: greater than 7 miles , 10 km
2018/07/22 20:50 EGVN 222050Z 27006KT CAVOK 25/15 Q1016 NOSIG
EGTK - Oxford, United Kingdom
Distance from station: SE 22mi, 35km
Updated: 22/07/2018 22:20
Clear
Clear
 Wind from NNW
Wind: NNW 3 mph , 6 km/h
Temperature: 24°C
Dew Point: 17°C
Humidity: 65%
Barometer: 1016 hPa
Summary: Clear
Visibility: greater than 7 miles , 10 km
2018/07/22 21:20 EGTK 222120Z 34003KT CAVOK 24/17 Q1016
 
EGBJ - Staverton (priva, United Kingdom
Distance from station: WSW 23mi, 36km
Updated: 22/07/2018 18:50
NOT Current
Few Clouds
Few Clouds
 Wind from WSW
Wind: WSW 7 mph , 11 km/h
Temperature: 27°C
Heat Index: 28°C
Dew Point: 16°C
Humidity: 51%
Barometer: 1015 hPa
Clouds: Few Clouds
Visibility: 6 miles , 10 km
Cloud details: Few Clouds 1372 m
2018/07/22 17:50 EGBJ 221750Z 24006KT 9999 FEW045 27/16 Q1015
EGVA - Fairford Raf, United Kingdom
Distance from station: S 27mi, 43km
Updated: 22/07/2018 21:56
Overcast
Overcast
 Wind from W
Wind: W 13 mph , 20 km/h
Temperature: 24°C
Dew Point: 16°C
Humidity: 61%
Barometer: 1015.9 hPa
Clouds: Overcast
Visibility: 6 miles , 10 km
Cloud details: Overcast 1676 m
2018/07/22 20:56 EGVA 222056Z AUTO 27011KT 9999 OVC055 24/16 A3000 RMK AO2 VIS 0600 RWY09 SLP159 T02410158 52012
 
EGBB - Birmingham Airpo, United Kingdom
Distance from station: N 29mi, 46km
Updated: 22/07/2018 22:20
Clear
Clear
 Wind from N
Wind: N 3 mph , 6 km/h
Temperature: 23°C
Dew Point: 16°C
Humidity: 65%
Barometer: 1016 hPa
Summary: Clear
Visibility: greater than 7 miles , 10 km
2018/07/22 21:20 EGBB 222120Z 01003KT CAVOK 23/16 Q1016
EGUB - Benson Raf, United Kingdom
Distance from station: SE 40mi, 65km
Updated: 22/07/2018 21:50
Overcast
Overcast
 Wind from NNE
Wind: NNE 2 mph , 4 km/h
Temperature: 24°C
Dew Point: 17°C
Humidity: 65%
Barometer: 1015 hPa
Clouds: Overcast
Visibility: 6 miles , 10 km
Cloud details: Overcast 1524 m
2018/07/22 20:50 EGUB 222050Z AUTO 03002KT 9999 // OVC050/// 24/17 Q1015
 
EGTC - Cranfield, United Kingdom
Distance from station: E 46mi, 74km
Updated: 22/07/2018 17:20
NOT Current
Mostly cloudy
Mostly cloudy
 Wind from varies
Wind: varies 3 mph , 6 km/h
Temperature: 26°C
Dew Point: 16°C
Humidity: 54%
Barometer: 1015 hPa
Clouds: Mostly cloudy
Visibility: 6 miles , 10 km
Cloud details: Mostly cloudy 1494 m
2018/07/22 16:20 EGTC 221620Z VRB03KT 9999 BKN049 26/16 Q1015
EGWC - Cosford Raf, United Kingdom
Distance from station: NNW 46mi, 75km
Updated: 20/07/2018 15:50
NOT Current
Light rain, Showers, Mostly cloudy
Light rain, Showers, Mostly cloudy
 Wind from NW
Wind: NW 10 mph , 17 km/h
Temperature: 20°C
Dew Point: 13°C
Humidity: 64%
Barometer: 1014 hPa
Summary: Light rain, Showers
Clouds: Mostly cloudy
Visibility: 6 miles , 10 km
Cloud details: Mostly cloudy 1829 m
2018/07/20 14:50 EGWC 201450Z 31009KT 9999 -SHRA BKN060 20/13 Q1014 BLU